createdAt,value
2022-10-17T00:01:51.413Z,17.55
2022-10-17T00:04:24.918Z,14.85
2022-10-17T00:06:55.160Z,16.15
2022-10-17T00:09:25.326Z,16.65
2022-10-17T00:11:55.457Z,16.75
2022-10-17T00:14:25.723Z,16.63
2022-10-17T00:16:55.988Z,15.43
2022-10-17T00:19:28.929Z,18.55
2022-10-17T00:21:59.027Z,14.88
2022-10-17T00:24:29.213Z,13.85
2022-10-17T00:26:59.477Z,14.15
2022-10-17T00:29:29.747Z,17.13
2022-10-17T00:32:00.553Z,16.33
2022-10-17T00:34:33.758Z,13.85
2022-10-17T00:37:03.864Z,14.20
2022-10-17T00:39:34.113Z,11.93
2022-10-17T00:42:04.290Z,16.73
2022-10-17T00:45:03.668Z,14.30
2022-10-17T00:47:34.743Z,18.95
2022-10-17T00:50:10.216Z,12.43
2022-10-17T00:52:40.860Z,11.07
2022-10-17T00:55:17.033Z,11.27
2022-10-17T00:57:48.590Z,16.73
2022-10-17T01:00:20.319Z,9.95
2022-10-17T01:02:51.403Z,9.68
2022-10-17T01:05:24.810Z,10.93
2022-10-17T01:07:56.730Z,11.02
2022-10-17T01:10:35.300Z,13.98
2022-10-17T01:13:14.817Z,13.98
2022-10-17T01:16:00.083Z,11.35
2022-10-17T01:18:45.888Z,10.38
2022-10-17T01:21:34.403Z,10.90
2022-10-17T01:24:24.034Z,12.18
2022-10-17T01:27:48.554Z,13.95
2022-10-17T01:31:11.283Z,13.18
2022-10-17T01:33:51.912Z,10.00
2022-10-17T01:36:38.322Z,12.13
2022-10-17T01:39:19.170Z,11.68
2022-10-17T01:41:59.106Z,10.20
2022-10-17T01:44:37.278Z,10.95
2022-10-17T01:47:14.735Z,10.30
2022-10-17T01:49:46.998Z,10.77
2022-10-17T01:52:23.022Z,10.68
2022-10-17T01:54:57.126Z,11.23
2022-10-17T01:57:33.545Z,9.45
2022-10-17T02:00:07.100Z,9.38
2022-10-17T02:02:40.556Z,9.95
2022-10-17T02:05:12.017Z,7.82
2022-10-17T02:07:44.442Z,10.88
2022-10-17T02:10:24.734Z,9.13
2022-10-17T02:13:01.271Z,10.02
2022-10-17T02:16:08.079Z,10.40
2022-10-17T02:19:27.893Z,8.48
2022-10-17T02:22:11.367Z,9.25
2022-10-17T02:24:50.842Z,11.30
2022-10-17T02:27:32.015Z,10.65
2022-10-17T02:30:11.426Z,8.43
2022-10-17T02:32:50.445Z,10.45
2022-10-17T02:35:26.023Z,7.03
2022-10-17T02:37:58.453Z,9.32
2022-10-17T02:40:32.481Z,8.65
2022-10-17T02:43:03.700Z,6.65
2022-10-17T02:45:36.281Z,7.30
2022-10-17T02:48:09.853Z,6.65
2022-10-17T02:50:55.575Z,8.68
2022-10-17T02:53:36.379Z,9.52
2022-10-17T02:56:13.708Z,7.35
2022-10-17T02:58:45.230Z,7.28
2022-10-17T03:01:16.423Z,7.18
2022-10-17T03:03:47.345Z,8.00
2022-10-17T03:06:20.702Z,7.90
2022-10-17T03:08:50.896Z,8.15
2022-10-17T03:11:21.589Z,7.18
2022-10-17T03:13:51.780Z,9.63
2022-10-17T03:16:22.057Z,7.25
2022-10-17T03:18:52.245Z,11.10
2022-10-17T03:21:25.050Z,7.38
2022-10-17T03:23:55.217Z,7.78
2022-10-17T03:26:25.720Z,11.80
2022-10-17T03:28:55.899Z,9.18
2022-10-17T03:31:26.282Z,8.10
2022-10-17T03:33:57.243Z,6.80
2022-10-17T03:36:30.145Z,7.95
2022-10-17T03:39:00.282Z,7.82
2022-10-17T03:41:30.574Z,6.03
2022-10-17T03:44:00.999Z,8.13
2022-10-17T03:46:31.278Z,11.63
2022-10-17T03:49:01.638Z,8.02
2022-10-17T03:51:37.180Z,6.63
2022-10-17T03:54:07.684Z,8.43
2022-10-17T03:56:37.804Z,9.73
2022-10-17T03:59:08.489Z,8.80
2022-10-17T04:01:38.655Z,6.68
2022-10-17T04:04:09.132Z,8.23
2022-10-17T04:06:42.039Z,12.50
2022-10-17T04:09:13.803Z,7.63
2022-10-17T04:11:44.974Z,12.57
2022-10-17T04:14:15.136Z,6.30
2022-10-17T04:16:45.967Z,7.30
2022-10-17T04:19:17.313Z,8.98
2022-10-17T04:21:50.242Z,8.60
2022-10-17T04:24:20.706Z,9.45
2022-10-17T04:26:54.861Z,12.45
2022-10-17T04:29:25.068Z,8.55
2022-10-17T04:31:56.152Z,9.43
2022-10-17T04:34:26.321Z,10.70
2022-10-17T04:37:00.834Z,10.55
2022-10-17T04:39:31.167Z,11.18
2022-10-17T04:42:01.277Z,9.93
2022-10-17T04:44:33.621Z,8.98
2022-10-17T04:47:03.815Z,7.82
2022-10-17T04:49:34.064Z,8.73
2022-10-17T04:52:07.501Z,10.85
2022-10-17T04:54:37.598Z,11.10
2022-10-17T04:57:07.924Z,10.30
2022-10-17T04:59:38.084Z,9.98
2022-10-17T05:02:08.244Z,10.27
2022-10-17T05:04:38.373Z,11.10
2022-10-17T05:07:11.226Z,9.40
2022-10-17T05:09:41.442Z,11.98
2022-10-17T05:12:11.584Z,13.35
2022-10-17T05:14:41.689Z,9.50
2022-10-17T05:17:12.237Z,8.70
2022-10-17T05:19:42.377Z,10.30
2022-10-17T05:22:15.171Z,11.85
2022-10-17T05:24:45.296Z,8.05
2022-10-17T05:27:16.276Z,8.45
2022-10-17T05:29:46.455Z,11.75
2022-10-17T05:32:17.846Z,12.80
2022-10-17T05:34:48.057Z,15.50
2022-10-17T05:37:20.838Z,11.52
2022-10-17T05:39:51.598Z,9.38
2022-10-17T05:42:22.088Z,7.93
2022-10-17T05:44:52.484Z,9.70
2022-10-17T05:47:22.655Z,9.27
2022-10-17T05:49:52.864Z,7.97
2022-10-17T05:52:25.886Z,11.93
2022-10-17T05:54:56.446Z,8.00
2022-10-17T05:57:28.865Z,13.07
2022-10-17T05:59:59.182Z,10.93
2022-10-17T06:02:29.716Z,9.25
2022-10-17T06:05:00.097Z,8.90
2022-10-17T06:07:32.944Z,9.48
2022-10-17T06:10:03.094Z,8.45
2022-10-17T06:12:33.220Z,11.38
2022-10-17T06:15:03.436Z,9.98
2022-10-17T06:17:33.748Z,10.23
2022-10-17T06:20:04.166Z,9.98
2022-10-17T06:22:37.075Z,11.48
2022-10-17T06:25:08.316Z,11.70
2022-10-17T06:27:38.537Z,16.38
2022-10-17T06:30:10.599Z,9.88
2022-10-17T06:32:40.780Z,11.52
2022-10-17T06:35:11.671Z,12.20
2022-10-17T06:37:44.503Z,10.02
2022-10-17T06:40:17.361Z,12.07
2022-10-17T06:42:48.183Z,10.10
2022-10-17T06:45:18.489Z,10.40
2022-10-17T06:47:49.543Z,11.15
2022-10-17T06:50:19.901Z,12.02
2022-10-17T06:52:54.557Z,10.15
2022-10-17T06:57:57.037Z,11.45
2022-10-17T07:00:27.541Z,12.25
2022-10-17T07:02:57.692Z,11.68
2022-10-17T07:05:27.901Z,13.38
2022-10-17T07:08:00.593Z,8.85
2022-10-17T07:10:30.848Z,10.80
2022-10-17T07:13:00.957Z,12.20
2022-10-17T07:15:32.573Z,10.15
2022-10-17T07:18:02.791Z,10.18
2022-10-17T07:20:32.982Z,10.32
2022-10-17T07:23:05.810Z,11.30
2022-10-17T07:25:39.386Z,9.95
2022-10-17T07:28:10.474Z,14.18
2022-10-17T07:30:40.691Z,14.48
2022-10-17T07:33:10.873Z,11.77
2022-10-17T07:35:43.568Z,11.35
2022-10-17T07:38:16.460Z,10.35
2022-10-17T07:40:46.800Z,10.55
2022-10-17T07:43:16.940Z,11.48
2022-10-17T07:45:47.190Z,9.75
2022-10-17T07:48:17.393Z,11.38
2022-10-17T07:50:47.736Z,12.90
2022-10-17T07:53:20.922Z,12.15
2022-10-17T07:55:51.581Z,10.25
2022-10-17T07:58:21.777Z,11.50
2022-10-17T08:00:52.027Z,12.98
2022-10-17T08:03:22.300Z,11.18
2022-10-17T08:05:52.491Z,11.30
2022-10-17T08:08:25.282Z,12.30
2022-10-17T08:10:55.798Z,10.27
2022-10-17T08:13:26.431Z,8.23
2022-10-17T08:16:03.386Z,8.70
2022-10-17T08:18:33.790Z,9.02
2022-10-17T08:21:06.357Z,9.55
2022-10-17T08:23:40.542Z,10.35
2022-10-17T08:26:13.624Z,9.93
2022-10-17T08:28:44.638Z,10.10
2022-10-17T08:31:18.367Z,17.60
2022-10-17T08:33:49.694Z,9.90
2022-10-17T08:36:22.693Z,8.45
2022-10-17T08:38:55.477Z,10.30
2022-10-17T08:41:47.011Z,10.85
2022-10-17T08:44:32.466Z,15.13
2022-10-17T08:47:07.600Z,10.95
2022-10-17T08:49:49.116Z,7.25
2022-10-17T08:52:29.922Z,9.90
2022-10-17T08:55:02.805Z,8.85
2022-10-17T08:57:33.273Z,9.85
2022-10-17T09:00:03.741Z,8.15
2022-10-17T09:02:47.791Z,8.32
2022-10-17T09:05:44.801Z,7.90
2022-10-17T09:08:35.928Z,7.70
2022-10-17T09:11:20.909Z,9.45
2022-10-17T09:14:09.609Z,12.15
2022-10-17T09:17:05.713Z,7.03
2022-10-17T09:19:40.207Z,8.82
2022-10-17T09:24:55.693Z,9.68
2022-10-17T09:27:36.931Z,13.00
2022-10-17T09:30:44.096Z,9.80
2022-10-17T09:33:28.791Z,9.05
2022-10-17T09:36:09.225Z,6.50
2022-10-17T09:38:44.477Z,11.30
2022-10-17T09:44:22.021Z,6.40
2022-10-17T09:47:08.238Z,9.55
2022-10-17T09:49:40.781Z,7.25
2022-10-17T09:52:17.244Z,7.85
2022-10-17T09:54:50.770Z,7.18
2022-10-17T09:57:23.604Z,7.57
2022-10-17T10:00:04.818Z,6.82
2022-10-17T10:02:40.886Z,7.63
2022-10-17T10:05:21.729Z,6.53
2022-10-17T10:08:07.124Z,7.85
2022-10-17T10:10:37.398Z,7.32
2022-10-17T10:13:18.033Z,7.00
2022-10-17T10:15:52.680Z,6.93
2022-10-17T10:18:35.886Z,9.25
2022-10-17T10:21:14.270Z,6.82
2022-10-17T10:23:46.386Z,7.55
2022-10-17T10:26:26.977Z,8.50
2022-10-17T10:29:01.894Z,8.50
2022-10-17T10:31:40.276Z,11.10
2022-10-17T10:34:23.543Z,7.22
2022-10-17T10:36:59.777Z,9.57
2022-10-17T10:39:43.224Z,7.30
2022-10-17T10:42:26.707Z,7.20
2022-10-17T10:45:01.642Z,6.38
2022-10-17T10:47:35.831Z,7.22
2022-10-17T10:50:27.019Z,7.05
2022-10-17T10:53:15.215Z,9.00
2022-10-17T10:55:51.976Z,7.75
2022-10-17T10:58:48.057Z,7.85
2022-10-17T11:01:25.049Z,9.77
2022-10-17T11:04:22.789Z,13.68
2022-10-17T11:06:58.885Z,9.02
2022-10-17T11:09:40.679Z,8.15
2022-10-17T11:12:17.843Z,7.72
2022-10-17T11:14:54.871Z,8.52
2022-10-17T11:17:35.518Z,8.23
2022-10-17T11:20:25.044Z,14.20
2022-10-17T11:23:03.309Z,10.73
2022-10-17T11:25:37.726Z,7.78
2022-10-17T11:30:53.740Z,7.95
2022-10-17T11:33:30.846Z,8.05
2022-10-17T11:36:09.657Z,9.02
2022-10-17T11:38:50.577Z,10.02
2022-10-17T11:41:26.177Z,7.63
2022-10-17T11:44:01.037Z,7.63
2022-10-17T11:46:32.304Z,9.35
2022-10-17T11:49:10.659Z,7.47
2022-10-17T11:52:05.152Z,8.27
2022-10-17T11:54:42.472Z,10.63
2022-10-17T11:57:40.634Z,9.70
2022-10-17T12:00:30.090Z,9.32
2022-10-17T12:03:20.208Z,8.10
2022-10-17T12:05:58.869Z,7.43
2022-10-17T12:08:40.560Z,8.27
2022-10-17T12:11:21.642Z,7.70
2022-10-17T12:13:56.485Z,10.93
2022-10-17T12:16:53.724Z,7.78
2022-10-17T12:19:36.460Z,10.23
2022-10-17T12:22:21.742Z,8.65
2022-10-17T12:25:03.739Z,10.68
2022-10-17T12:27:46.348Z,8.40
2022-10-17T12:30:26.544Z,12.95
2022-10-17T12:33:06.013Z,8.77
2022-10-17T12:35:39.892Z,8.05
2022-10-17T12:38:31.089Z,9.35
2022-10-17T12:41:09.136Z,8.60
2022-10-17T12:43:53.295Z,7.68
2022-10-17T12:46:58.633Z,9.23
2022-10-17T12:49:46.860Z,9.73
2022-10-17T12:52:28.826Z,7.88
2022-10-17T12:55:14.374Z,10.63
2022-10-17T12:58:00.141Z,7.38
2022-10-17T13:00:39.340Z,10.30
2022-10-17T13:03:19.062Z,10.15
2022-10-17T13:05:53.250Z,9.20
2022-10-17T13:08:27.487Z,10.02
2022-10-17T13:10:59.415Z,8.30
2022-10-17T13:13:41.544Z,8.70
2022-10-17T13:16:12.442Z,8.88
2022-10-17T13:18:42.646Z,9.95
2022-10-17T13:21:19.559Z,10.48
2022-10-17T13:23:51.451Z,10.27
2022-10-17T13:26:24.305Z,8.73
2022-10-17T13:29:15.531Z,8.52
2022-10-17T13:31:47.725Z,8.48
2022-10-17T13:34:22.077Z,8.73
2022-10-17T13:39:44.783Z,13.82
2022-10-17T13:42:27.703Z,9.23
2022-10-17T13:45:02.251Z,8.90
2022-10-17T13:47:36.299Z,14.65
2022-10-17T13:50:26.378Z,8.55
2022-10-17T13:53:21.885Z,8.88
2022-10-17T13:56:22.886Z,9.27
2022-10-17T13:58:50.911Z,8.93
2022-10-17T14:01:25.330Z,11.80
2022-10-17T14:06:47.884Z,11.82
2022-10-17T14:09:26.517Z,9.98
2022-10-17T14:12:04.889Z,8.25
2022-10-17T14:14:58.093Z,8.02
2022-10-17T14:17:31.188Z,12.68
2022-10-17T14:20:34.012Z,8.90
2022-10-17T14:23:17.882Z,9.07
2022-10-17T14:25:46.460Z,9.93
2022-10-17T14:28:19.028Z,9.55
2022-10-17T14:30:56.776Z,10.13
2022-10-17T14:33:34.590Z,11.20
2022-10-17T14:36:07.894Z,11.80
2022-10-17T14:38:39.499Z,10.90
2022-10-17T14:44:19.085Z,14.20
2022-10-17T14:46:51.309Z,12.52
2022-10-17T14:49:31.286Z,8.88
2022-10-17T14:52:33.753Z,9.60
2022-10-17T14:55:26.043Z,12.95
2022-10-17T14:57:56.285Z,13.90
2022-10-17T15:00:27.595Z,10.55
2022-10-17T15:02:59.047Z,9.15
2022-10-17T15:05:31.846Z,9.30
2022-10-17T15:08:02.150Z,10.93
2022-10-17T15:10:36.812Z,12.23
2022-10-17T15:15:58.274Z,11.48
2022-10-17T15:18:28.386Z,11.63
2022-10-17T15:21:05.423Z,9.90
2022-10-17T15:23:43.454Z,8.18
2022-10-17T15:26:22.935Z,9.98
2022-10-17T15:28:54.797Z,12.02
2022-10-17T15:31:27.299Z,15.48
2022-10-17T15:33:57.740Z,9.48
2022-10-17T15:36:33.011Z,10.15
2022-10-17T15:39:04.799Z,8.52
2022-10-17T15:41:36.437Z,8.10
2022-10-17T15:44:06.922Z,10.18
2022-10-17T15:46:39.090Z,10.02
2022-10-17T15:49:14.414Z,9.57
2022-10-17T15:51:51.725Z,10.10
2022-10-17T15:54:25.769Z,11.35
2022-10-17T15:56:58.430Z,11.00
2022-10-17T15:59:36.907Z,13.52
2022-10-17T16:02:07.719Z,10.55
2022-10-17T16:04:37.990Z,11.32
2022-10-17T16:07:11.467Z,9.68
2022-10-17T16:09:41.860Z,12.20
2022-10-17T16:12:18.833Z,9.85
2022-10-17T16:14:49.315Z,11.45
2022-10-17T16:17:20.813Z,11.05
2022-10-17T16:19:50.947Z,10.02
2022-10-17T16:22:30.162Z,10.48
2022-10-17T16:25:08.085Z,11.02
2022-10-17T16:27:40.007Z,10.95
2022-10-17T16:30:11.943Z,9.13
2022-10-17T16:32:42.517Z,12.43
2022-10-17T16:35:16.033Z,14.73
2022-10-17T16:37:49.191Z,11.05
2022-10-17T16:40:20.385Z,14.35
2022-10-17T16:42:50.876Z,12.85
2022-10-17T16:45:24.494Z,12.90
2022-10-17T16:47:54.985Z,20.60
2022-10-17T16:50:25.332Z,17.58
2022-10-17T16:52:58.466Z,11.45
2022-10-17T16:55:28.837Z,12.70
2022-10-17T16:58:00.318Z,12.85
2022-10-17T17:00:30.775Z,11.95
2022-10-17T17:03:01.051Z,17.00
2022-10-17T17:05:31.363Z,13.73
2022-10-17T17:08:04.934Z,19.30
2022-10-17T17:10:37.340Z,15.93
2022-10-17T17:13:07.680Z,14.32
2022-10-17T17:15:38.644Z,14.85
2022-10-17T17:18:09.220Z,17.50
2022-10-17T17:20:39.942Z,14.00
2022-10-17T17:23:15.897Z,19.17
2022-10-17T17:25:46.814Z,20.05
2022-10-17T17:28:17.082Z,15.45
2022-10-17T17:30:47.412Z,17.08
2022-10-17T17:33:17.786Z,16.23
2022-10-17T17:35:48.334Z,16.80
2022-10-17T17:38:21.133Z,14.68
2022-10-17T17:40:51.626Z,12.95
2022-10-17T17:43:22.415Z,13.55
2022-10-17T17:45:52.945Z,10.65
2022-10-17T17:48:23.564Z,11.98
2022-10-17T17:50:54.001Z,13.65
2022-10-17T17:53:27.250Z,11.80
2022-10-17T17:56:05.361Z,12.65
2022-10-17T17:58:36.926Z,16.73
2022-10-17T18:01:15.249Z,11.85
2022-10-17T18:03:45.716Z,11.32
2022-10-17T18:06:17.181Z,18.58
2022-10-17T18:08:52.615Z,13.48
2022-10-17T18:11:23.331Z,11.00
2022-10-17T18:13:58.089Z,13.30
2022-10-17T18:16:29.632Z,12.98
2022-10-17T18:19:04.141Z,15.85
2022-10-17T18:21:38.086Z,12.52
2022-10-17T18:24:11.609Z,13.70
2022-10-17T18:26:42.096Z,11.60
2022-10-17T18:29:13.071Z,14.80
2022-10-17T18:31:43.797Z,12.98
2022-10-17T18:34:13.983Z,13.60
2022-10-17T18:36:44.333Z,12.60
2022-10-17T18:39:17.175Z,12.82
2022-10-17T18:41:47.550Z,13.35
2022-10-17T18:44:17.978Z,14.50
2022-10-17T18:46:48.439Z,14.77
2022-10-17T18:49:23.397Z,14.63
2022-10-17T18:51:53.935Z,14.63
2022-10-17T18:54:26.889Z,13.98
2022-10-17T18:56:58.309Z,14.15
2022-10-17T18:59:28.444Z,13.13
2022-10-17T19:01:58.859Z,20.05
2022-10-17T19:04:29.488Z,19.05
2022-10-17T19:06:59.611Z,16.60
2022-10-17T19:09:32.425Z,13.80
2022-10-17T19:12:02.637Z,13.90
2022-10-17T19:14:32.836Z,15.25
2022-10-17T19:17:04.167Z,16.00
2022-10-17T19:19:34.347Z,14.55
2022-10-17T19:22:04.481Z,15.00
2022-10-17T19:24:37.230Z,16.70
2022-10-17T19:27:07.494Z,12.75
2022-10-17T19:29:37.747Z,17.95
2022-10-17T19:32:15.590Z,18.38
2022-10-17T19:34:48.199Z,14.02
2022-10-17T19:37:18.472Z,15.15
2022-10-17T19:39:51.821Z,15.13
2022-10-17T19:42:22.009Z,14.15
2022-10-17T19:44:52.225Z,16.33
2022-10-17T19:47:22.415Z,17.17
2022-10-17T19:49:52.654Z,17.63
2022-10-17T19:52:22.971Z,18.20
2022-10-17T19:54:55.831Z,15.07
2022-10-17T19:57:25.969Z,16.38
2022-10-17T19:59:56.361Z,17.73
2022-10-17T20:02:26.779Z,15.40
2022-10-17T20:05:13.775Z,17.25
2022-10-17T20:07:47.012Z,15.95
2022-10-17T20:10:20.348Z,16.10
2022-10-17T20:12:50.732Z,16.98
2022-10-17T20:15:21.104Z,17.42
2022-10-17T20:17:51.178Z,16.55
2022-10-17T20:20:21.527Z,19.30
2022-10-17T20:22:51.788Z,21.95
2022-10-17T20:25:24.815Z,22.13
2022-10-17T20:27:55.215Z,17.35
2022-10-17T20:30:25.442Z,16.00
2022-10-17T20:32:55.703Z,19.80
2022-10-17T20:35:26.372Z,18.70
2022-10-17T20:37:56.559Z,16.90
2022-10-17T20:40:35.118Z,16.10
2022-10-17T20:43:06.312Z,19.83
2022-10-17T20:45:50.941Z,16.95
2022-10-17T20:48:22.600Z,20.75
2022-10-17T20:50:53.340Z,18.10
2022-10-17T20:53:36.474Z,22.52
2022-10-17T20:56:12.554Z,17.90
2022-10-17T20:58:42.741Z,23.50
2022-10-17T21:01:13.937Z,18.30
2022-10-17T21:03:46.547Z,20.08
2022-10-17T21:06:17.941Z,18.02
2022-10-17T21:08:49.055Z,19.92
2022-10-17T21:11:25.328Z,20.83
2022-10-17T21:13:59.297Z,19.10
2022-10-17T21:16:30.962Z,18.48
2022-10-17T21:19:01.145Z,20.80
2022-10-17T21:21:34.121Z,18.48
2022-10-17T21:24:07.266Z,19.05
2022-10-17T21:26:41.236Z,19.02
2022-10-17T21:29:12.553Z,20.25
2022-10-17T21:31:44.875Z,20.38
2022-10-17T21:34:18.580Z,21.63
2022-10-17T21:36:48.813Z,19.50
2022-10-17T21:39:19.950Z,17.95
2022-10-17T21:41:52.839Z,20.58
2022-10-17T21:44:25.699Z,25.65
2022-10-17T21:46:57.308Z,19.23
2022-10-17T21:49:29.876Z,24.80
2022-10-17T21:52:00.114Z,19.63
2022-10-17T21:54:30.304Z,21.98
2022-10-17T21:57:03.120Z,22.60
2022-10-17T21:59:35.674Z,23.98
2022-10-17T22:02:05.968Z,19.35
2022-10-17T22:04:36.065Z,24.67
2022-10-17T22:07:06.201Z,22.27
2022-10-17T22:09:36.320Z,19.77
2022-10-17T22:12:09.145Z,17.40
2022-10-17T22:14:39.230Z,19.10
2022-10-17T22:17:09.357Z,22.58
2022-10-17T22:19:39.443Z,22.95
2022-10-17T22:22:09.632Z,21.42
2022-10-17T22:24:40.143Z,22.58
2022-10-17T22:27:13.101Z,20.83
2022-10-17T22:33:25.068Z,18.85
2022-10-17T22:35:55.233Z,21.42
2022-10-17T22:38:25.296Z,28.63
2022-10-17T22:40:55.529Z,25.65
2022-10-17T22:43:28.591Z,22.65
2022-10-17T22:46:01.288Z,20.05
2022-10-17T22:48:32.560Z,27.23
2022-10-17T22:51:03.393Z,18.63
2022-10-17T22:53:35.256Z,21.42
2022-10-17T22:56:11.748Z,23.67
2022-10-17T22:58:44.737Z,19.38
2022-10-17T23:01:19.725Z,22.67
2022-10-17T23:03:50.479Z,21.65
2022-10-17T23:06:21.081Z,20.15
2022-10-17T23:08:52.349Z,22.02
2022-10-17T23:11:23.552Z,23.73
2022-10-17T23:13:56.233Z,21.98
2022-10-17T23:16:26.419Z,25.25
2022-10-17T23:18:56.626Z,22.42
2022-10-17T23:21:26.876Z,19.38
2022-10-17T23:23:57.070Z,22.55
2022-10-17T23:26:27.224Z,24.80
2022-10-17T23:29:00.217Z,22.88
2022-10-17T23:31:30.448Z,20.20
2022-10-17T23:34:01.984Z,23.77
2022-10-17T23:39:22.482Z,24.25
2022-10-17T23:41:52.681Z,21.05
2022-10-17T23:44:25.388Z,21.42
2022-10-17T23:46:55.536Z,21.65
2022-10-17T23:49:25.684Z,25.73
2022-10-17T23:51:55.699Z,26.73
2022-10-17T23:54:25.951Z,20.80
2022-10-17T23:56:56.107Z,23.17
2022-10-17T23:59:28.798Z,24.48
